createdAt,value
2023-01-26T00:00:16.101Z,100579.84
2023-01-26T00:01:23.294Z,100577.31
2023-01-26T00:02:26.457Z,100574.72
2023-01-26T00:03:28.260Z,100573.03
2023-01-26T00:04:30.175Z,100567.88
2023-01-26T00:05:32.239Z,100550.63
2023-01-26T00:06:34.162Z,100567.88
2023-01-26T00:07:35.990Z,100561.00
2023-01-26T00:08:39.033Z,100577.31
2023-01-26T00:09:41.002Z,100563.56
2023-01-26T00:10:50.386Z,100561.00
2023-01-26T00:11:52.214Z,100557.56
2023-01-26T00:12:54.050Z,100559.28
2023-01-26T00:14:00.367Z,100555.00
2023-01-26T00:15:02.062Z,100549.84
2023-01-26T00:16:04.839Z,100556.69
2023-01-26T00:17:06.634Z,100550.66
2023-01-26T00:18:09.475Z,100548.94
2023-01-26T00:19:15.172Z,100546.38
2023-01-26T00:20:17.460Z,100535.16
2023-01-26T00:21:21.936Z,100548.88
2023-01-26T00:22:26.519Z,100550.63
2023-01-26T00:23:30.631Z,100548.88
2023-01-26T00:24:33.751Z,100548.00
2023-01-26T00:25:40.270Z,100540.31
2023-01-26T00:26:41.986Z,100542.91
2023-01-26T00:27:44.580Z,100541.19
2023-01-26T00:28:46.875Z,100535.16
2023-01-26T00:29:50.155Z,100542.06
2023-01-26T00:30:52.328Z,100544.63
2023-01-26T00:31:54.281Z,100542.97
2023-01-26T00:32:57.592Z,100538.66
2023-01-26T00:34:00.125Z,100543.78
2023-01-26T00:35:02.777Z,100542.13
2023-01-26T00:36:05.082Z,100548.97
2023-01-26T00:37:06.949Z,100547.28
2023-01-26T00:38:09.787Z,100548.16
2023-01-26T00:39:11.771Z,100546.44
2023-01-26T00:40:13.654Z,100543.88
2023-01-26T00:41:34.742Z,100543.88
2023-01-26T00:42:36.913Z,100543.06
2023-01-26T00:43:39.053Z,100543.06
2023-01-26T00:44:42.703Z,100534.47
2023-01-26T00:45:44.816Z,100531.03
2023-01-26T00:46:47.875Z,100533.63
2023-01-26T00:47:49.783Z,100533.66
2023-01-26T00:48:52.169Z,100538.81
2023-01-26T00:49:57.152Z,100537.09
2023-01-26T00:50:58.849Z,100517.25
2023-01-26T00:52:00.881Z,100533.69
2023-01-26T00:53:02.700Z,100534.53
2023-01-26T00:54:04.488Z,100535.38
2023-01-26T00:55:06.974Z,100528.53
2023-01-26T00:56:09.306Z,100532.81
2023-01-26T00:57:11.025Z,100533.69
2023-01-26T00:58:12.981Z,100535.44
2023-01-26T00:59:14.596Z,100531.16
2023-01-26T01:00:19.917Z,100526.84
2023-01-26T01:01:22.183Z,100526.00
2023-01-26T01:02:24.153Z,100525.09
2023-01-26T01:03:26.821Z,100521.66
2023-01-26T01:04:31.654Z,100506.09
2023-01-26T01:05:34.517Z,100531.91
2023-01-26T01:06:36.530Z,100529.34
2023-01-26T01:07:38.253Z,100525.06
2023-01-26T01:08:40.004Z,100525.03
2023-01-26T01:09:41.893Z,100522.50
2023-01-26T01:10:44.449Z,100513.03
2023-01-26T01:11:46.135Z,100516.47
2023-01-26T01:12:48.010Z,100517.31
2023-01-26T01:13:49.733Z,100518.16
2023-01-26T01:14:51.968Z,100511.28
2023-01-26T01:15:53.926Z,100513.00
2023-01-26T01:16:56.231Z,100508.69
2023-01-26T01:17:59.335Z,100508.66
2023-01-26T01:19:02.290Z,100505.25
2023-01-26T01:20:09.534Z,100503.53
2023-01-26T01:21:14.496Z,100488.88
2023-01-26T01:22:16.508Z,100501.75
2023-01-26T01:23:18.424Z,100500.91
2023-01-26T01:24:20.547Z,100500.91
2023-01-26T01:25:24.143Z,100502.63
2023-01-26T01:26:27.780Z,100493.19
2023-01-26T01:27:29.740Z,100495.72
2023-01-26T01:28:33.762Z,100495.75
2023-01-26T01:29:35.813Z,100497.47
2023-01-26T01:30:38.480Z,100501.78
2023-01-26T01:31:42.253Z,100495.78
2023-01-26T01:32:45.010Z,100497.53
2023-01-26T01:33:47.415Z,100432.03
2023-01-26T01:34:49.572Z,100498.31
2023-01-26T01:36:04.418Z,100496.59
2023-01-26T01:37:06.719Z,100494.88
2023-01-26T01:38:08.812Z,100488.84
2023-01-26T01:39:11.111Z,100428.56
2023-01-26T01:40:13.737Z,100491.41
2023-01-26T01:41:20.129Z,100473.31
2023-01-26T01:42:23.863Z,100435.38
2023-01-26T01:43:27.249Z,100490.59
2023-01-26T01:44:30.204Z,100491.44
2023-01-26T01:45:46.310Z,100482.88
2023-01-26T01:46:56.707Z,100483.72
2023-01-26T01:48:03.964Z,100484.56
2023-01-26T01:49:14.566Z,100489.72
2023-01-26T01:50:18.241Z,100482.00
2023-01-26T01:52:04.293Z,100490.59
2023-01-26T01:53:11.964Z,100477.72
2023-01-26T01:54:18.404Z,100479.47
2023-01-26T01:55:20.765Z,100486.31
2023-01-26T01:56:27.272Z,100485.47
2023-01-26T01:57:45.244Z,100488.06
2023-01-26T01:58:53.587Z,100479.47
2023-01-26T02:00:10.012Z,100478.63
2023-01-26T02:01:12.888Z,100482.06
2023-01-26T02:02:16.157Z,100423.47
2023-01-26T02:03:21.483Z,100487.22
2023-01-26T02:04:25.031Z,100481.22
2023-01-26T02:05:32.925Z,100483.78
2023-01-26T02:06:53.397Z,100488.09
2023-01-26T02:07:55.936Z,100489.78
2023-01-26T02:08:59.655Z,100487.28
2023-01-26T02:10:18.764Z,100487.25
2023-01-26T02:11:32.551Z,100482.97
2023-01-26T02:12:37.173Z,100496.69
2023-01-26T02:13:41.797Z,100488.97
2023-01-26T02:14:45.189Z,100485.50
2023-01-26T02:15:47.425Z,100487.25
2023-01-26T02:16:49.390Z,100485.53
2023-01-26T02:17:53.056Z,100479.50
2023-01-26T02:18:55.953Z,100482.09
2023-01-26T02:20:04.610Z,100484.66
2023-01-26T02:21:09.142Z,100471.75
2023-01-26T02:22:28.024Z,100464.84
2023-01-26T02:23:32.920Z,100463.16
2023-01-26T02:24:38.990Z,100475.22
2023-01-26T02:25:54.334Z,100476.06
2023-01-26T02:26:57.241Z,100451.09
2023-01-26T02:27:59.745Z,100462.28
2023-01-26T02:29:08.150Z,100482.09
2023-01-26T02:30:12.480Z,100473.50
2023-01-26T02:31:14.880Z,100467.47
2023-01-26T02:32:16.946Z,100471.75
2023-01-26T02:33:24.812Z,100466.59
2023-01-26T02:34:28.955Z,100464.03
2023-01-26T02:35:30.927Z,100473.47
2023-01-26T02:36:34.674Z,100464.91
2023-01-26T02:37:36.826Z,100473.47
2023-01-26T02:38:44.695Z,100469.19
2023-01-26T02:39:55.470Z,100471.75
2023-01-26T02:41:04.760Z,100475.19
2023-01-26T02:42:25.994Z,100478.63
2023-01-26T02:43:28.964Z,100474.34
2023-01-26T02:44:32.878Z,100477.78
2023-01-26T02:45:34.897Z,100472.59
2023-01-26T02:46:36.921Z,100460.53
2023-01-26T02:47:40.590Z,100470.03
2023-01-26T02:49:01.341Z,100470.88
2023-01-26T02:50:03.845Z,100444.16
2023-01-26T02:51:06.359Z,100463.97
2023-01-26T02:52:09.351Z,100472.59
2023-01-26T02:53:11.474Z,100472.59
2023-01-26T02:54:33.535Z,100477.72
2023-01-26T02:55:35.597Z,100477.72
2023-01-26T02:56:40.857Z,100409.69
2023-01-26T02:57:43.030Z,100471.66
2023-01-26T02:58:44.702Z,100474.25
2023-01-26T02:59:46.907Z,100470.88
2023-01-26T03:00:48.981Z,100467.44
2023-01-26T03:01:53.596Z,100469.13
2023-01-26T03:02:58.819Z,100471.72
2023-01-26T03:04:00.736Z,100458.78
2023-01-26T03:05:04.720Z,100467.38
2023-01-26T03:06:06.677Z,100469.09
2023-01-26T03:07:08.859Z,100463.97
2023-01-26T03:08:10.691Z,100471.69
2023-01-26T03:09:12.660Z,100467.38
2023-01-26T03:10:16.987Z,100457.94
2023-01-26T03:11:18.873Z,100465.66
2023-01-26T03:12:20.833Z,100463.97
2023-01-26T03:13:22.723Z,100462.25
2023-01-26T03:14:24.975Z,100461.38
2023-01-26T03:15:43.558Z,100458.81
2023-01-26T03:16:45.456Z,100457.06
2023-01-26T03:17:47.210Z,100465.66
2023-01-26T03:19:04.777Z,100468.25
2023-01-26T03:20:26.330Z,100460.53
2023-01-26T03:21:46.747Z,100458.81
2023-01-26T03:23:07.360Z,100460.53
2023-01-26T03:24:32.353Z,100454.50
2023-01-26T03:25:55.796Z,100455.38
2023-01-26T03:27:16.617Z,100448.50
2023-01-26T03:28:22.519Z,100448.50
2023-01-26T03:29:29.129Z,100448.50
2023-01-26T03:30:31.035Z,100451.91
2023-01-26T03:31:33.012Z,100450.19
2023-01-26T03:32:34.852Z,100451.06
2023-01-26T03:33:36.744Z,100455.34
2023-01-26T03:34:38.927Z,100449.31
2023-01-26T03:35:40.749Z,100445.00
2023-01-26T03:36:43.412Z,100448.47
2023-01-26T03:37:45.302Z,100451.88
2023-01-26T03:38:47.426Z,100464.75
2023-01-26T03:40:11.518Z,100449.28
2023-01-26T03:41:32.539Z,100432.81
2023-01-26T03:42:54.216Z,100455.31
2023-01-26T03:44:14.666Z,100448.44
2023-01-26T03:45:35.628Z,100444.94
2023-01-26T03:46:56.828Z,100446.69
2023-01-26T03:48:30.871Z,100444.09
2023-01-26T03:49:51.515Z,100445.81
2023-01-26T03:51:12.112Z,100445.81
2023-01-26T03:52:32.399Z,100447.56
2023-01-26T03:53:53.413Z,100446.72
2023-01-26T03:55:13.880Z,100449.25
2023-01-26T03:56:20.443Z,100444.94
2023-01-26T03:57:22.390Z,100443.25
2023-01-26T03:58:24.579Z,100438.97
2023-01-26T03:59:39.416Z,100430.34
2023-01-26T04:00:41.606Z,100437.22
2023-01-26T04:02:05.968Z,100441.53
2023-01-26T04:03:27.077Z,100436.41
2023-01-26T04:04:47.882Z,100436.41
2023-01-26T04:06:16.159Z,100436.41
2023-01-26T04:07:38.233Z,100436.41
2023-01-26T04:08:39.950Z,100429.53
2023-01-26T04:09:41.944Z,100433.81
2023-01-26T04:10:43.754Z,100427.81
2023-01-26T04:11:46.552Z,100427.78
2023-01-26T04:13:07.620Z,100424.31
2023-01-26T04:14:32.309Z,100429.47
2023-01-26T04:15:58.775Z,100425.97
2023-01-26T04:17:21.719Z,100424.25
2023-01-26T04:18:42.419Z,100425.97
2023-01-26T04:20:02.885Z,100425.13
2023-01-26T04:21:24.362Z,100422.53
2023-01-26T04:22:26.876Z,100421.69
2023-01-26T04:23:29.020Z,100421.66
2023-01-26T04:24:30.819Z,100416.53
2023-01-26T04:25:32.616Z,100448.28
2023-01-26T04:26:37.788Z,100419.94
2023-01-26T04:27:41.138Z,100416.50
2023-01-26T04:28:42.863Z,100416.47
2023-01-26T04:29:44.989Z,100420.75
2023-01-26T04:30:47.149Z,100418.16
2023-01-26T04:31:49.300Z,100419.00
2023-01-26T04:32:51.635Z,100412.97
2023-01-26T04:33:54.715Z,100402.56
2023-01-26T04:34:56.637Z,100415.50
2023-01-26T04:36:06.881Z,100410.34
2023-01-26T04:37:10.376Z,100411.19
2023-01-26T04:38:12.232Z,100418.03
2023-01-26T04:39:14.428Z,100410.28
2023-01-26T04:40:16.593Z,100412.03
2023-01-26T04:41:18.620Z,100416.34
2023-01-26T04:42:21.135Z,100410.31
2023-01-26T04:43:22.911Z,100412.06
2023-01-26T04:44:25.376Z,100412.94
2023-01-26T04:45:27.299Z,100410.38
2023-01-26T04:46:29.227Z,100409.50
2023-01-26T04:47:31.557Z,100411.25
2023-01-26T04:48:34.379Z,100412.94
2023-01-26T04:49:36.066Z,100406.91
2023-01-26T04:50:38.310Z,100401.72
2023-01-26T04:51:40.713Z,100401.69
2023-01-26T04:52:42.749Z,100408.53
2023-01-26T04:53:44.776Z,100381.91
2023-01-26T04:54:46.564Z,100404.31
2023-01-26T04:55:48.900Z,100406.88
2023-01-26T04:56:51.739Z,100400.88
2023-01-26T04:57:53.534Z,100402.59
2023-01-26T04:58:56.579Z,100406.03
2023-01-26T04:59:58.969Z,100398.31
2023-01-26T05:01:01.049Z,100397.50
2023-01-26T05:02:03.457Z,100394.84
2023-01-26T05:03:05.208Z,100400.06
2023-01-26T05:04:07.702Z,100399.16
2023-01-26T05:05:10.267Z,100400.03
2023-01-26T05:06:12.826Z,100408.59
2023-01-26T05:07:14.852Z,100410.28
2023-01-26T05:08:17.823Z,100409.44
2023-01-26T05:09:19.773Z,100387.03
2023-01-26T05:10:21.848Z,100405.09
2023-01-26T05:11:24.284Z,100412.00
2023-01-26T05:12:35.456Z,100416.22
2023-01-26T05:13:37.627Z,100435.09
2023-01-26T05:14:39.398Z,100410.22
2023-01-26T05:15:41.415Z,100409.38
2023-01-26T05:16:43.234Z,100408.50
2023-01-26T05:17:45.160Z,100411.09
2023-01-26T05:18:47.260Z,100412.81
2023-01-26T05:19:48.894Z,100403.38
2023-01-26T05:20:50.752Z,100406.81
2023-01-26T05:21:52.821Z,100401.66
2023-01-26T05:22:54.815Z,100411.13
2023-01-26T05:23:57.469Z,100407.69
2023-01-26T05:24:59.652Z,100403.38
2023-01-26T05:26:01.684Z,100400.78
2023-01-26T05:27:21.712Z,100416.22
2023-01-26T05:28:23.840Z,100406.81
2023-01-26T05:29:25.720Z,100401.66
2023-01-26T05:30:27.952Z,100398.22
2023-01-26T05:31:29.785Z,100394.81
2023-01-26T05:32:31.845Z,100397.38
2023-01-26T05:33:33.689Z,100399.97
2023-01-26T05:34:35.441Z,100405.94
2023-01-26T05:35:37.328Z,100401.66
2023-01-26T05:36:39.134Z,100400.78
2023-01-26T05:37:42.674Z,100404.28
2023-01-26T05:38:44.799Z,100402.53
2023-01-26T05:39:46.927Z,100397.38
2023-01-26T05:40:49.200Z,100399.13
2023-01-26T05:41:51.237Z,100394.84
2023-01-26T05:42:54.085Z,100395.72
2023-01-26T05:43:56.378Z,100393.16
2023-01-26T05:44:58.127Z,100400.00
2023-01-26T05:46:00.169Z,100400.00
2023-01-26T05:47:02.139Z,100395.72
2023-01-26T05:48:04.273Z,100394.88
2023-01-26T05:49:06.147Z,100401.75
2023-01-26T05:50:08.394Z,100394.88
2023-01-26T05:51:10.164Z,100393.16
2023-01-26T05:52:15.459Z,100386.34
2023-01-26T05:53:17.289Z,100389.66
2023-01-26T05:54:19.405Z,100388.84
2023-01-26T05:55:21.296Z,100391.41
2023-01-26T05:56:24.833Z,100387.13
2023-01-26T05:57:26.762Z,100386.25
2023-01-26T05:58:29.972Z,100387.97
2023-01-26T05:59:34.893Z,100395.69
2023-01-26T06:00:36.855Z,100381.09
2023-01-26T06:01:39.909Z,100370.72
2023-01-26T06:02:42.409Z,100417.09
2023-01-26T06:03:44.484Z,100387.06
2023-01-26T06:04:46.649Z,100390.50
2023-01-26T06:05:54.372Z,100389.66
2023-01-26T06:06:58.069Z,100387.09
2023-01-26T06:08:00.693Z,100393.06
2023-01-26T06:09:02.578Z,100391.41
2023-01-26T06:10:06.103Z,100320.78
2023-01-26T06:11:08.126Z,100388.84
2023-01-26T06:12:17.662Z,100394.84
2023-01-26T06:13:19.983Z,100394.84
2023-01-26T06:14:21.753Z,100388.84
2023-01-26T06:15:23.538Z,100390.56
2023-01-26T06:16:25.833Z,100393.16
2023-01-26T06:17:27.983Z,100384.53
2023-01-26T06:18:29.850Z,100334.56
2023-01-26T06:19:31.680Z,100394.84
2023-01-26T06:20:33.330Z,100391.41
2023-01-26T06:21:35.291Z,100392.28
2023-01-26T06:22:36.935Z,100398.28
2023-01-26T06:23:38.962Z,100389.69
2023-01-26T06:24:40.884Z,100366.44
2023-01-26T06:25:43.216Z,100398.28
2023-01-26T06:26:46.984Z,100400.88
2023-01-26T06:27:52.297Z,100393.06
2023-01-26T06:28:54.921Z,100399.97
2023-01-26T06:29:57.419Z,100395.69
2023-01-26T06:31:01.224Z,100400.81
2023-01-26T06:32:03.058Z,100393.97
2023-01-26T06:33:07.128Z,100402.56
2023-01-26T06:34:09.015Z,100392.25
2023-01-26T06:35:11.171Z,100392.28
2023-01-26T06:36:14.997Z,100397.41
2023-01-26T06:37:16.955Z,100395.72
2023-01-26T06:38:20.460Z,100397.41
2023-01-26T06:39:22.207Z,100398.25
2023-01-26T06:40:24.165Z,100405.13
2023-01-26T06:41:26.485Z,100393.97
2023-01-26T06:42:28.179Z,100408.50
2023-01-26T06:43:31.345Z,100375.88
2023-01-26T06:44:33.053Z,100389.63
2023-01-26T06:45:34.797Z,100394.84
2023-01-26T06:46:36.769Z,100397.41
2023-01-26T06:47:38.777Z,100399.13
2023-01-26T06:48:41.060Z,100392.28
2023-01-26T06:49:43.168Z,100392.28
2023-01-26T06:50:45.877Z,100376.78
2023-01-26T06:52:03.200Z,100395.72
2023-01-26T06:53:25.628Z,100394.84
2023-01-26T06:54:27.486Z,100400.03
2023-01-26T06:55:38.843Z,100396.63
2023-01-26T06:56:40.898Z,100404.34
2023-01-26T06:57:43.620Z,100386.28
2023-01-26T06:58:45.305Z,100395.75
2023-01-26T06:59:46.965Z,100394.88
2023-01-26T07:00:49.039Z,100391.47
2023-01-26T07:01:51.320Z,100388.00
2023-01-26T07:02:53.613Z,100402.63
2023-01-26T07:03:56.025Z,100398.34
2023-01-26T07:04:58.000Z,100401.81
2023-01-26T07:05:59.711Z,100398.34
2023-01-26T07:07:01.560Z,100400.97
2023-01-26T07:08:04.385Z,100403.53
2023-01-26T07:09:06.366Z,100403.50
2023-01-26T07:10:09.083Z,100396.66
2023-01-26T07:11:12.656Z,100406.97
2023-01-26T07:12:14.415Z,100402.69
2023-01-26T07:13:16.466Z,100412.16
2023-01-26T07:14:18.568Z,100407.88
2023-01-26T07:15:20.231Z,100416.50
2023-01-26T07:16:22.067Z,100404.50
2023-01-26T07:17:23.814Z,100410.50
2023-01-26T07:18:25.558Z,100409.59
2023-01-26T07:19:27.400Z,100410.47
2023-01-26T07:20:30.358Z,100406.19
2023-01-26T07:21:32.279Z,100404.47
2023-01-26T07:22:34.304Z,100413.91
2023-01-26T07:23:36.154Z,100408.81
2023-01-26T07:24:37.868Z,100418.25
2023-01-26T07:25:43.383Z,100413.97
2023-01-26T07:26:45.085Z,100417.41
2023-01-26T07:27:46.768Z,100411.41
2023-01-26T07:28:48.701Z,100407.16
2023-01-26T07:29:51.496Z,100409.75
2023-01-26T07:30:57.425Z,100385.59
2023-01-26T07:31:59.572Z,100411.47
2023-01-26T07:33:01.960Z,100449.25
2023-01-26T07:34:03.929Z,100419.19
2023-01-26T07:35:09.010Z,100423.47
2023-01-26T07:36:11.343Z,100415.72
2023-01-26T07:37:13.184Z,100415.69
2023-01-26T07:38:14.945Z,100414.81
2023-01-26T07:39:16.859Z,100418.22
2023-01-26T07:40:18.795Z,100416.50
2023-01-26T07:41:20.731Z,100417.31
2023-01-26T07:42:22.654Z,100415.66
2023-01-26T07:43:24.653Z,100415.63
2023-01-26T07:44:26.832Z,100414.78
2023-01-26T07:45:28.500Z,100419.09
2023-01-26T07:46:30.358Z,100391.53
2023-01-26T07:47:32.044Z,100420.88
2023-01-26T07:48:34.513Z,100375.97
2023-01-26T07:49:36.901Z,100412.31
2023-01-26T07:50:38.812Z,100417.50
2023-01-26T07:51:41.067Z,100445.81
2023-01-26T07:52:43.844Z,100420.94
2023-01-26T07:53:49.829Z,100416.63
2023-01-26T07:54:51.666Z,100420.06
2023-01-26T07:55:53.478Z,100413.22
2023-01-26T07:56:57.974Z,100411.50
2023-01-26T07:57:59.679Z,100409.75
2023-01-26T07:59:03.755Z,100411.47
2023-01-26T08:00:06.789Z,100412.31
2023-01-26T08:01:14.253Z,100407.13
2023-01-26T08:02:16.024Z,100378.69
2023-01-26T08:03:17.776Z,100404.53
2023-01-26T08:04:19.641Z,100442.25
2023-01-26T08:05:21.516Z,100415.69
2023-01-26T08:06:23.342Z,100413.09
2023-01-26T08:07:25.402Z,100413.91
2023-01-26T08:08:28.791Z,100415.66
2023-01-26T08:09:30.646Z,100414.78
2023-01-26T08:10:32.602Z,100411.34
2023-01-26T08:11:35.330Z,100407.88
2023-01-26T08:12:40.863Z,100417.28
2023-01-26T08:13:42.740Z,100415.66
2023-01-26T08:14:47.024Z,100419.94
2023-01-26T08:15:49.112Z,100422.50
2023-01-26T08:16:50.744Z,100420.81
2023-01-26T08:17:54.605Z,100411.34
2023-01-26T08:18:56.497Z,100419.09
2023-01-26T08:19:58.298Z,100420.84
2023-01-26T08:21:00.713Z,100423.41
2023-01-26T08:22:04.142Z,100422.56
2023-01-26T08:23:09.178Z,100426.88
2023-01-26T08:24:14.265Z,100427.78
2023-01-26T08:25:16.607Z,100401.09
2023-01-26T08:26:19.986Z,100421.78
2023-01-26T08:27:23.158Z,100432.09
2023-01-26T08:28:25.606Z,100434.69
2023-01-26T08:29:27.484Z,100427.84
2023-01-26T08:30:29.225Z,100427.84
2023-01-26T08:31:31.188Z,100420.94
2023-01-26T08:32:32.981Z,100429.56
2023-01-26T08:33:35.433Z,100414.09
2023-01-26T08:34:37.083Z,100429.59
2023-01-26T08:35:39.624Z,100435.59
2023-01-26T08:36:41.401Z,100435.59
2023-01-26T08:37:43.537Z,100433.06
2023-01-26T08:38:45.423Z,100436.50
2023-01-26T08:39:47.109Z,100441.66
2023-01-26T08:40:52.064Z,100439.94
2023-01-26T08:41:54.663Z,100439.94
2023-01-26T08:42:59.322Z,100439.06
2023-01-26T08:44:01.494Z,100437.38
2023-01-26T08:45:03.457Z,100416.75
2023-01-26T08:46:05.634Z,100439.13
2023-01-26T08:47:07.615Z,100440.81
2023-01-26T08:48:09.371Z,100437.41
2023-01-26T08:49:11.200Z,100440.84
2023-01-26T08:50:13.205Z,100435.72
2023-01-26T08:51:15.395Z,100437.44
2023-01-26T08:52:17.051Z,100434.00
2023-01-26T08:53:18.787Z,100436.59
2023-01-26T08:54:20.673Z,100440.91
2023-01-26T08:55:22.468Z,100433.16
2023-01-26T08:56:24.987Z,100428.84
2023-01-26T08:57:27.324Z,100437.44
2023-01-26T08:58:29.873Z,100425.44
2023-01-26T08:59:31.960Z,100434.91
2023-01-26T09:00:34.269Z,100426.28
2023-01-26T09:01:35.967Z,100437.50
2023-01-26T09:02:37.876Z,100435.75
2023-01-26T09:03:40.282Z,100430.59
2023-01-26T09:04:41.978Z,100435.75
2023-01-26T09:05:43.761Z,100434.00
2023-01-26T09:06:45.650Z,100434.88
2023-01-26T09:07:47.380Z,100445.19
2023-01-26T09:08:49.440Z,100446.88
2023-01-26T09:09:51.259Z,100438.31
2023-01-26T09:10:52.986Z,100438.34
2023-01-26T09:11:57.855Z,100440.94
2023-01-26T09:13:01.733Z,100439.19
2023-01-26T09:14:03.779Z,100440.91
2023-01-26T09:15:06.684Z,100431.47
2023-01-26T09:16:15.609Z,100439.22
2023-01-26T09:17:20.428Z,100431.50
2023-01-26T09:18:22.112Z,100432.38
2023-01-26T09:19:24.150Z,100433.22
2023-01-26T09:20:26.481Z,100438.38
2023-01-26T09:21:28.365Z,100443.56
2023-01-26T09:22:30.746Z,100435.81
2023-01-26T09:23:34.427Z,100440.13
2023-01-26T09:24:36.225Z,100445.28
2023-01-26T09:25:38.777Z,100432.38
2023-01-26T09:26:40.519Z,100443.56
2023-01-26T09:27:43.999Z,100441.84
2023-01-26T09:28:50.355Z,100443.53
2023-01-26T09:29:52.765Z,100442.69
2023-01-26T09:30:54.767Z,100440.13
2023-01-26T09:31:57.564Z,100428.06
2023-01-26T09:33:00.753Z,100445.28
2023-01-26T09:34:02.842Z,100471.06
2023-01-26T09:35:05.210Z,100445.31
2023-01-26T09:36:11.307Z,100446.13
2023-01-26T09:37:13.272Z,100449.59
2023-01-26T09:38:15.122Z,100451.31
2023-01-26T09:39:17.149Z,100427.22
2023-01-26T09:40:42.081Z,100441.00
2023-01-26T09:41:55.604Z,100439.31
2023-01-26T09:43:29.401Z,100447.06
2023-01-26T09:44:40.633Z,100439.28
2023-01-26T09:45:59.103Z,100440.16
2023-01-26T09:47:24.569Z,100436.69
2023-01-26T09:48:51.825Z,100447.00
2023-01-26T09:50:08.790Z,100438.44
2023-01-26T09:51:38.481Z,100437.59
2023-01-26T09:52:48.242Z,100441.00
2023-01-26T09:54:02.179Z,100436.69
2023-01-26T09:55:15.525Z,100438.44
2023-01-26T09:56:20.227Z,100435.00
2023-01-26T09:57:44.552Z,100441.88
2023-01-26T09:58:52.686Z,100437.56
2023-01-26T10:00:10.072Z,100372.13
2023-01-26T10:01:36.377Z,100445.28
2023-01-26T10:03:15.674Z,100440.09
2023-01-26T10:04:36.886Z,100434.94
2023-01-26T10:05:51.550Z,100438.38
2023-01-26T10:06:56.729Z,100421.16
2023-01-26T10:07:58.522Z,100440.09
2023-01-26T10:09:17.078Z,100446.13
2023-01-26T10:10:32.531Z,100444.41
2023-01-26T10:11:48.593Z,100447.84
2023-01-26T10:12:54.144Z,100446.16
2023-01-26T10:14:05.309Z,100439.25
2023-01-26T10:15:27.697Z,100446.16
2023-01-26T10:16:29.994Z,100447.91
2023-01-26T10:17:44.294Z,100436.69
2023-01-26T10:18:57.647Z,100440.13
2023-01-26T10:20:17.941Z,100441.88
2023-01-26T10:21:23.790Z,100441.88
2023-01-26T10:22:44.297Z,100435.00
2023-01-26T10:23:49.489Z,100442.72
2023-01-26T10:24:52.703Z,100442.72
2023-01-26T10:26:00.100Z,100434.97
2023-01-26T10:27:11.115Z,100440.16
2023-01-26T10:28:24.764Z,100447.88
2023-01-26T10:29:26.787Z,100437.56
2023-01-26T10:30:28.809Z,100441.03
2023-01-26T10:31:33.160Z,100411.78
2023-01-26T10:32:42.640Z,100437.59
2023-01-26T10:34:14.728Z,100442.75
2023-01-26T10:35:21.468Z,100438.41
2023-01-26T10:36:23.783Z,100433.25
2023-01-26T10:37:29.991Z,100428.97
2023-01-26T10:38:34.624Z,100427.22
2023-01-26T10:39:37.949Z,100425.53
2023-01-26T10:40:45.594Z,100422.94
2023-01-26T10:42:02.262Z,100428.09
2023-01-26T10:43:04.148Z,100464.97
2023-01-26T10:44:32.971Z,100427.19
2023-01-26T10:45:47.022Z,100397.97
2023-01-26T10:47:03.780Z,100422.09
2023-01-26T10:48:17.968Z,100426.38
2023-01-26T10:49:20.224Z,100428.09
2023-01-26T10:50:25.323Z,100426.41
2023-01-26T10:51:31.350Z,100421.22
2023-01-26T10:52:33.134Z,100421.22
2023-01-26T10:53:34.902Z,100385.09
2023-01-26T10:54:38.208Z,100423.81
2023-01-26T10:55:41.092Z,100421.22
2023-01-26T10:56:57.553Z,100420.34
2023-01-26T10:58:00.292Z,100418.63
2023-01-26T10:59:03.189Z,100425.53
2023-01-26T11:00:20.145Z,100420.38
2023-01-26T11:01:27.352Z,100420.38
2023-01-26T11:02:31.642Z,100418.66
2023-01-26T11:03:33.585Z,100424.69
2023-01-26T11:04:35.413Z,100418.66
2023-01-26T11:05:37.303Z,100417.81
2023-01-26T11:06:41.384Z,100409.19
2023-01-26T11:07:46.331Z,100420.38
2023-01-26T11:08:48.125Z,100411.78
2023-01-26T11:09:53.405Z,100416.06
2023-01-26T11:10:57.412Z,100412.63
2023-01-26T11:12:01.955Z,100409.22
2023-01-26T11:13:08.794Z,100415.22
2023-01-26T11:14:18.754Z,100414.38
2023-01-26T11:15:23.707Z,100410.09
2023-01-26T11:16:27.756Z,100414.38
2023-01-26T11:17:43.237Z,100416.13
2023-01-26T11:19:12.982Z,100370.53
2023-01-26T11:20:56.855Z,100410.09
2023-01-26T11:22:13.329Z,100408.41
2023-01-26T11:23:36.837Z,100410.13
2023-01-26T11:24:52.607Z,100402.38
2023-01-26T11:26:23.646Z,100403.25
2023-01-26T11:27:34.821Z,100395.50
2023-01-26T11:28:45.751Z,100397.22
2023-01-26T11:30:20.512Z,100402.34
2023-01-26T11:31:22.746Z,100398.94
2023-01-26T11:32:30.532Z,100400.63
2023-01-26T11:33:46.252Z,100395.47
2023-01-26T11:34:53.905Z,100397.19
2023-01-26T11:36:21.639Z,100398.09
2023-01-26T11:37:57.821Z,100391.22
2023-01-26T11:39:17.050Z,100367.09
2023-01-26T11:40:32.225Z,100394.66
2023-01-26T11:42:03.021Z,100392.94
2023-01-26T11:43:23.137Z,100387.75
2023-01-26T11:44:30.751Z,100386.03
2023-01-26T11:45:47.809Z,100384.31
2023-01-26T11:47:13.877Z,100374.88
2023-01-26T11:48:24.463Z,100382.56
2023-01-26T11:49:57.156Z,100378.31
2023-01-26T11:51:14.689Z,100370.59
2023-01-26T11:52:42.859Z,100374.00
2023-01-26T11:54:03.665Z,100375.75
2023-01-26T11:55:15.662Z,100379.16
2023-01-26T11:56:55.137Z,100380.03
2023-01-26T11:58:27.874Z,100382.63
2023-01-26T11:59:48.625Z,100369.72
2023-01-26T12:00:56.636Z,100379.19
2023-01-26T12:02:18.790Z,100369.75
2023-01-26T12:03:41.642Z,100373.16
2023-01-26T12:04:45.784Z,100368.00
2023-01-26T12:05:52.652Z,100377.47
2023-01-26T12:07:26.160Z,100364.56
2023-01-26T12:08:41.880Z,100373.16
2023-01-26T12:09:47.157Z,100365.44
2023-01-26T12:10:59.170Z,100368.84
2023-01-26T12:12:09.026Z,100363.72
2023-01-26T12:13:24.480Z,100373.16
2023-01-26T12:15:06.038Z,100370.59
2023-01-26T12:16:20.722Z,100363.72
2023-01-26T12:17:47.332Z,100357.69
2023-01-26T12:19:11.234Z,100368.00
2023-01-26T12:20:50.286Z,100361.09
2023-01-26T12:21:57.455Z,100355.94
2023-01-26T12:23:09.572Z,100361.13
2023-01-26T12:24:54.286Z,100353.41
2023-01-26T12:25:53.146Z,100344.78
2023-01-26T12:26:55.229Z,100347.38
2023-01-26T12:28:26.585Z,100349.09
2023-01-26T12:29:44.916Z,100345.66
2023-01-26T12:30:59.492Z,100341.38
2023-01-26T12:32:10.205Z,100346.53
2023-01-26T12:33:12.215Z,100341.34
2023-01-26T12:34:14.425Z,100338.75
2023-01-26T12:35:44.496Z,100336.19
2023-01-26T12:36:52.063Z,100343.06
2023-01-26T12:38:17.290Z,100343.06
2023-01-26T12:39:26.675Z,100335.34
2023-01-26T12:40:52.276Z,100330.19